sensor_id;sensor_type;location;lat;lon;timestamp;temperature;humidity
52030;DHT22;38043;53.224;6.580;2023-07-20T00:01:06;15.70;99.90
52030;DHT22;38043;53.224;6.580;2023-07-20T00:03:32;15.60;99.90
52030;DHT22;38043;53.224;6.580;2023-07-20T00:05:58;15.70;99.90
52030;DHT22;38043;53.224;6.580;2023-07-20T00:08:23;15.60;99.90
52030;DHT22;38043;53.224;6.580;2023-07-20T00:10:49;15.70;99.90
52030;DHT22;38043;53.224;6.580;2023-07-20T00:13:15;15.70;99.90
52030;DHT22;38043;53.224;6.580;2023-07-20T00:15:42;15.70;99.90
52030;DHT22;38043;53.224;6.580;2023-07-20T00:18:08;15.60;99.90
52030;DHT22;38043;53.224;6.580;2023-07-20T00:20:34;15.60;99.90
52030;DHT22;38043;53.224;6.580;2023-07-20T00:23:00;15.60;99.90
52030;DHT22;38043;53.224;6.580;2023-07-20T00:25:25;15.70;99.90
52030;DHT22;38043;53.224;6.580;2023-07-20T00:27:51;15.60;99.90
52030;DHT22;38043;53.224;6.580;2023-07-20T00:30:17;15.60;99.90
52030;DHT22;38043;53.224;6.580;2023-07-20T00:32:44;15.50;99.90
52030;DHT22;38043;53.224;6.580;2023-07-20T00:35:10;15.60;99.90
52030;DHT22;38043;53.224;6.580;2023-07-20T00:37:37;15.50;99.90
52030;DHT22;38043;53.224;6.580;2023-07-20T00:40:03;15.50;99.90
52030;DHT22;38043;53.224;6.580;2023-07-20T00:42:33;15.40;99.90
52030;DHT22;38043;53.224;6.580;2023-07-20T00:44:58;15.50;99.90
52030;DHT22;38043;53.224;6.580;2023-07-20T00:47:24;15.40;99.90
52030;DHT22;38043;53.224;6.580;2023-07-20T00:49:51;15.40;99.90
52030;DHT22;38043;53.224;6.580;2023-07-20T00:52:19;15.40;99.90
52030;DHT22;38043;53.224;6.580;2023-07-20T00:54:46;15.30;99.90
52030;DHT22;38043;53.224;6.580;2023-07-20T00:57:14;15.30;99.90
52030;DHT22;38043;53.224;6.580;2023-07-20T00:59:41;15.30;99.90
52030;DHT22;38043;53.224;6.580;2023-07-20T01:02:07;15.20;99.90
52030;DHT22;38043;53.224;6.580;2023-07-20T01:04:33;15.20;99.90
52030;DHT22;38043;53.224;6.580;2023-07-20T01:07:31;15.10;99.90
52030;DHT22;38043;53.224;6.580;2023-07-20T01:12:35;15.00;99.90
52030;DHT22;38043;53.224;6.580;2023-07-20T01:15:08;15.00;99.90
52030;DHT22;38043;53.224;6.580;2023-07-20T01:17:34;14.90;99.90
52030;DHT22;38043;53.224;6.580;2023-07-20T01:20:00;14.90;99.90
52030;DHT22;38043;53.224;6.580;2023-07-20T01:22:55;14.90;99.90
52030;DHT22;38043;53.224;6.580;2023-07-20T01:31:25;14.80;99.90
52030;DHT22;38043;53.224;6.580;2023-07-20T01:33:56;14.70;99.90
52030;DHT22;38043;53.224;6.580;2023-07-20T01:36:24;14.70;99.90
52030;DHT22;38043;53.224;6.580;2023-07-20T01:38:52;14.70;99.90
52030;DHT22;38043;53.224;6.580;2023-07-20T01:41:18;14.70;99.90
52030;DHT22;38043;53.224;6.580;2023-07-20T01:43:44;14.60;99.90
52030;DHT22;38043;53.224;6.580;2023-07-20T01:46:10;14.60;99.90
52030;DHT22;38043;53.224;6.580;2023-07-20T01:48:36;14.50;99.90
52030;DHT22;38043;53.224;6.580;2023-07-20T01:51:01;14.60;99.90
52030;DHT22;38043;53.224;6.580;2023-07-20T01:53:27;14.50;99.90
52030;DHT22;38043;53.224;6.580;2023-07-20T01:55:56;14.50;99.90
52030;DHT22;38043;53.224;6.580;2023-07-20T01:58:23;14.40;99.90
52030;DHT22;38043;53.224;6.580;2023-07-20T02:00:49;14.40;99.90
52030;DHT22;38043;53.224;6.580;2023-07-20T02:03:14;14.40;99.90
52030;DHT22;38043;53.224;6.580;2023-07-20T02:05:42;14.30;99.90
52030;DHT22;38043;53.224;6.580;2023-07-20T02:08:08;14.30;99.90
52030;DHT22;38043;53.224;6.580;2023-07-20T02:10:34;14.20;99.90
52030;DHT22;38043;53.224;6.580;2023-07-20T02:12:59;14.20;99.90
52030;DHT22;38043;53.224;6.580;2023-07-20T02:15:25;14.20;99.90
52030;DHT22;38043;53.224;6.580;2023-07-20T02:17:51;14.10;99.90
52030;DHT22;38043;53.224;6.580;2023-07-20T02:20:16;14.20;99.90
52030;DHT22;38043;53.224;6.580;2023-07-20T02:22:43;14.20;99.90
52030;DHT22;38043;53.224;6.580;2023-07-20T02:25:09;14.10;99.90
52030;DHT22;38043;53.224;6.580;2023-07-20T02:27:35;14.10;99.90
52030;DHT22;38043;53.224;6.580;2023-07-20T02:30:01;14.10;99.90
52030;DHT22;38043;53.224;6.580;2023-07-20T02:32:27;14.10;99.90
52030;DHT22;38043;53.224;6.580;2023-07-20T02:34:53;14.10;99.90
52030;DHT22;38043;53.224;6.580;2023-07-20T02:37:19;14.00;99.90
52030;DHT22;38043;53.224;6.580;2023-07-20T02:39:45;14.00;99.90
52030;DHT22;38043;53.224;6.580;2023-07-20T02:42:10;14.00;99.90
52030;DHT22;38043;53.224;6.580;2023-07-20T02:44:36;14.00;99.90
52030;DHT22;38043;53.224;6.580;2023-07-20T02:47:02;13.90;99.90
52030;DHT22;38043;53.224;6.580;2023-07-20T02:49:27;13.90;99.90
52030;DHT22;38043;53.224;6.580;2023-07-20T02:51:53;13.90;99.90
52030;DHT22;38043;53.224;6.580;2023-07-20T02:54:22;13.80;99.90
52030;DHT22;38043;53.224;6.580;2023-07-20T02:56:48;13.80;99.90
52030;DHT22;38043;53.224;6.580;2023-07-20T02:59:14;13.80;99.90
52030;DHT22;38043;53.224;6.580;2023-07-20T03:01:39;13.80;99.90
52030;DHT22;38043;53.224;6.580;2023-07-20T03:04:07;13.70;99.90
52030;DHT22;38043;53.224;6.580;2023-07-20T03:06:36;13.70;99.90
52030;DHT22;38043;53.224;6.580;2023-07-20T03:09:02;13.60;99.90
52030;DHT22;38043;53.224;6.580;2023-07-20T03:11:28;13.60;99.90
52030;DHT22;38043;53.224;6.580;2023-07-20T03:13:54;13.60;99.90
52030;DHT22;38043;53.224;6.580;2023-07-20T03:16:21;13.50;99.90
52030;DHT22;38043;53.224;6.580;2023-07-20T03:18:47;13.50;99.90
52030;DHT22;38043;53.224;6.580;2023-07-20T03:21:13;13.50;99.90
52030;DHT22;38043;53.224;6.580;2023-07-20T03:23:39;13.50;99.90
52030;DHT22;38043;53.224;6.580;2023-07-20T03:26:05;13.40;99.90
52030;DHT22;38043;53.224;6.580;2023-07-20T03:28:37;13.40;99.90
52030;DHT22;38043;53.224;6.580;2023-07-20T03:31:03;13.40;99.90
52030;DHT22;38043;53.224;6.580;2023-07-20T03:33:30;13.40;99.90
52030;DHT22;38043;53.224;6.580;2023-07-20T03:35:56;13.40;99.90
52030;DHT22;38043;53.224;6.580;2023-07-20T03:38:23;13.40;99.90
52030;DHT22;38043;53.224;6.580;2023-07-20T03:40:50;13.40;99.90
52030;DHT22;38043;53.224;6.580;2023-07-20T03:43:16;13.40;99.90
52030;DHT22;38043;53.224;6.580;2023-07-20T03:45:41;13.40;99.90
52030;DHT22;38043;53.224;6.580;2023-07-20T03:48:07;13.40;99.90
52030;DHT22;38043;53.224;6.580;2023-07-20T03:50:33;13.40;99.90
52030;DHT22;38043;53.224;6.580;2023-07-20T03:52:59;13.40;99.90
52030;DHT22;38043;53.224;6.580;2023-07-20T03:55:24;13.40;99.90
52030;DHT22;38043;53.224;6.580;2023-07-20T03:57:50;13.40;99.90
52030;DHT22;38043;53.224;6.580;2023-07-20T04:00:17;13.40;99.90
52030;DHT22;38043;53.224;6.580;2023-07-20T04:02:43;13.30;99.90
52030;DHT22;38043;53.224;6.580;2023-07-20T04:05:08;13.40;99.90
52030;DHT22;38043;53.224;6.580;2023-07-20T04:07:34;13.40;99.90
52030;DHT22;38043;53.224;6.580;2023-07-20T04:10:00;13.30;99.90
52030;DHT22;38043;53.224;6.580;2023-07-20T04:12:25;13.70;99.90
52030;DHT22;38043;53.224;6.580;2023-07-20T04:14:51;13.40;99.90
52030;DHT22;38043;53.224;6.580;2023-07-20T04:17:18;13.40;99.90
52030;DHT22;38043;53.224;6.580;2023-07-20T04:19:44;13.40;99.90
52030;DHT22;38043;53.224;6.580;2023-07-20T04:22:10;13.30;99.90
52030;DHT22;38043;53.224;6.580;2023-07-20T04:24:35;13.50;99.90
52030;DHT22;38043;53.224;6.580;2023-07-20T04:27:01;13.50;99.90
52030;DHT22;38043;53.224;6.580;2023-07-20T04:29:27;13.50;99.90
52030;DHT22;38043;53.224;6.580;2023-07-20T04:31:52;13.60;99.90
52030;DHT22;38043;53.224;6.580;2023-07-20T04:34:18;13.60;99.90
52030;DHT22;38043;53.224;6.580;2023-07-20T04:36:44;13.70;99.90
52030;DHT22;38043;53.224;6.580;2023-07-20T04:39:10;13.70;99.90
52030;DHT22;38043;53.224;6.580;2023-07-20T04:41:35;13.70;99.90
52030;DHT22;38043;53.224;6.580;2023-07-20T04:44:01;13.70;99.90
52030;DHT22;38043;53.224;6.580;2023-07-20T04:46:27;13.70;99.90
52030;DHT22;38043;53.224;6.580;2023-07-20T04:48:53;13.70;99.90
52030;DHT22;38043;53.224;6.580;2023-07-20T04:51:18;13.80;99.90
52030;DHT22;38043;53.224;6.580;2023-07-20T04:53:47;13.70;99.90
52030;DHT22;38043;53.224;6.580;2023-07-20T04:56:14;13.90;99.90
52030;DHT22;38043;53.224;6.580;2023-07-20T04:58:40;13.90;99.90
52030;DHT22;38043;53.224;6.580;2023-07-20T05:01:05;14.00;99.90
52030;DHT22;38043;53.224;6.580;2023-07-20T05:03:31;14.10;99.90
52030;DHT22;38043;53.224;6.580;2023-07-20T05:05:57;14.20;99.90
52030;DHT22;38043;53.224;6.580;2023-07-20T05:08:23;14.20;99.90
52030;DHT22;38043;53.224;6.580;2023-07-20T05:10:48;14.40;99.90
52030;DHT22;38043;53.224;6.580;2023-07-20T05:13:18;14.40;99.90
52030;DHT22;38043;53.224;6.580;2023-07-20T05:15:44;14.50;99.90
52030;DHT22;38043;53.224;6.580;2023-07-20T05:18:09;14.50;99.90
52030;DHT22;38043;53.224;6.580;2023-07-20T05:20:35;14.60;99.90
52030;DHT22;38043;53.224;6.580;2023-07-20T05:23:01;14.70;99.90
52030;DHT22;38043;53.224;6.580;2023-07-20T05:25:27;14.80;99.90
52030;DHT22;38043;53.224;6.580;2023-07-20T05:27:53;14.90;99.90
52030;DHT22;38043;53.224;6.580;2023-07-20T05:30:21;14.90;99.90
52030;DHT22;38043;53.224;6.580;2023-07-20T05:32:47;15.00;99.90
52030;DHT22;38043;53.224;6.580;2023-07-20T05:35:17;15.10;99.90
52030;DHT22;38043;53.224;6.580;2023-07-20T05:37:44;15.20;99.90
52030;DHT22;38043;53.224;6.580;2023-07-20T05:40:10;15.30;99.90
52030;DHT22;38043;53.224;6.580;2023-07-20T05:42:40;15.40;99.90
52030;DHT22;38043;53.224;6.580;2023-07-20T05:45:15;15.50;99.90
52030;DHT22;38043;53.224;6.580;2023-07-20T05:47:41;15.60;99.90
52030;DHT22;38043;53.224;6.580;2023-07-20T05:50:07;15.70;99.90
52030;DHT22;38043;53.224;6.580;2023-07-20T05:52:33;15.80;99.90
52030;DHT22;38043;53.224;6.580;2023-07-20T05:54:59;16.00;99.90
52030;DHT22;38043;53.224;6.580;2023-07-20T05:57:24;16.10;99.90
52030;DHT22;38043;53.224;6.580;2023-07-20T05:59:50;16.30;99.90
52030;DHT22;38043;53.224;6.580;2023-07-20T06:02:19;16.40;99.90
52030;DHT22;38043;53.224;6.580;2023-07-20T06:04:46;16.70;99.90
52030;DHT22;38043;53.224;6.580;2023-07-20T06:07:13;17.10;99.90
52030;DHT22;38043;53.224;6.580;2023-07-20T06:09:39;17.40;99.90
52030;DHT22;38043;53.224;6.580;2023-07-20T06:12:05;17.60;99.90
52030;DHT22;38043;53.224;6.580;2023-07-20T06:14:31;17.80;99.90
52030;DHT22;38043;53.224;6.580;2023-07-20T06:17:00;17.90;99.90
52030;DHT22;38043;53.224;6.580;2023-07-20T06:19:26;18.00;99.90
52030;DHT22;38043;53.224;6.580;2023-07-20T06:21:52;17.90;99.90
52030;DHT22;38043;53.224;6.580;2023-07-20T06:24:17;17.80;99.90
52030;DHT22;38043;53.224;6.580;2023-07-20T06:26:43;17.70;99.90
52030;DHT22;38043;53.224;6.580;2023-07-20T06:29:09;17.60;99.90
52030;DHT22;38043;53.224;6.580;2023-07-20T06:31:36;17.40;99.90
52030;DHT22;38043;53.224;6.580;2023-07-20T06:34:02;17.50;99.90
52030;DHT22;38043;53.224;6.580;2023-07-20T06:36:29;17.50;99.90
52030;DHT22;38043;53.224;6.580;2023-07-20T06:38:55;17.50;99.90
52030;DHT22;38043;53.224;6.580;2023-07-20T06:41:21;17.50;99.90
52030;DHT22;38043;53.224;6.580;2023-07-20T06:43:48;17.60;99.90
52030;DHT22;38043;53.224;6.580;2023-07-20T06:46:15;17.60;99.90
52030;DHT22;38043;53.224;6.580;2023-07-20T06:48:43;17.70;99.90
52030;DHT22;38043;53.224;6.580;2023-07-20T06:51:09;17.70;99.90
52030;DHT22;38043;53.224;6.580;2023-07-20T06:53:35;17.70;99.90
52030;DHT22;38043;53.224;6.580;2023-07-20T06:56:00;17.80;99.90
52030;DHT22;38043;53.224;6.580;2023-07-20T06:58:29;17.80;99.90
52030;DHT22;38043;53.224;6.580;2023-07-20T07:00:55;17.70;99.90
52030;DHT22;38043;53.224;6.580;2023-07-20T07:03:20;17.60;99.90
52030;DHT22;38043;53.224;6.580;2023-07-20T07:05:47;17.50;99.90
52030;DHT22;38043;53.224;6.580;2023-07-20T07:08:13;17.40;99.90
52030;DHT22;38043;53.224;6.580;2023-07-20T07:10:38;17.40;99.90
52030;DHT22;38043;53.224;6.580;2023-07-20T07:13:04;17.50;99.90
52030;DHT22;38043;53.224;6.580;2023-07-20T07:15:30;17.70;99.90
52030;DHT22;38043;53.224;6.580;2023-07-20T07:17:55;17.80;99.90
52030;DHT22;38043;53.224;6.580;2023-07-20T07:20:22;17.90;99.90
52030;DHT22;38043;53.224;6.580;2023-07-20T07:22:50;17.90;99.90
52030;DHT22;38043;53.224;6.580;2023-07-20T07:25:16;17.90;99.90
52030;DHT22;38043;53.224;6.580;2023-07-20T07:27:41;17.90;99.90
52030;DHT22;38043;53.224;6.580;2023-07-20T07:30:07;18.00;99.90
52030;DHT22;38043;53.224;6.580;2023-07-20T07:32:33;18.10;99.90
52030;DHT22;38043;53.224;6.580;2023-07-20T07:34:59;18.40;99.90
52030;DHT22;38043;53.224;6.580;2023-07-20T07:37:29;18.50;99.90
52030;DHT22;38043;53.224;6.580;2023-07-20T07:39:54;18.50;99.90
52030;DHT22;38043;53.224;6.580;2023-07-20T07:42:21;18.40;99.90
52030;DHT22;38043;53.224;6.580;2023-07-20T07:44:46;18.20;99.90
52030;DHT22;38043;53.224;6.580;2023-07-20T07:47:12;18.10;99.90
52030;DHT22;38043;53.224;6.580;2023-07-20T07:49:37;17.90;99.90
52030;DHT22;38043;53.224;6.580;2023-07-20T07:52:03;17.80;99.90
52030;DHT22;38043;53.224;6.580;2023-07-20T07:54:29;17.60;99.90
52030;DHT22;38043;53.224;6.580;2023-07-20T07:56:55;17.70;99.90
52030;DHT22;38043;53.224;6.580;2023-07-20T07:59:21;17.90;99.90
52030;DHT22;38043;53.224;6.580;2023-07-20T08:01:47;18.20;99.90
52030;DHT22;38043;53.224;6.580;2023-07-20T08:04:12;18.30;99.90
52030;DHT22;38043;53.224;6.580;2023-07-20T08:06:39;18.40;97.90
52030;DHT22;38043;53.224;6.580;2023-07-20T08:09:04;18.30;97.80
52030;DHT22;38043;53.224;6.580;2023-07-20T08:11:30;18.20;98.80
52030;DHT22;38043;53.224;6.580;2023-07-20T08:14:00;18.40;99.40
52030;DHT22;38043;53.224;6.580;2023-07-20T08:16:26;18.50;99.90
52030;DHT22;38043;53.224;6.580;2023-07-20T08:18:52;18.70;99.70
52030;DHT22;38043;53.224;6.580;2023-07-20T08:21:17;18.80;99.20
52030;DHT22;38043;53.224;6.580;2023-07-20T08:23:43;18.60;97.90
52030;DHT22;38043;53.224;6.580;2023-07-20T08:26:09;18.50;98.50
52030;DHT22;38043;53.224;6.580;2023-07-20T08:28:34;18.20;98.50
52030;DHT22;38043;53.224;6.580;2023-07-20T08:31:00;18.30;98.80
52030;DHT22;38043;53.224;6.580;2023-07-20T08:33:26;18.20;97.70
52030;DHT22;38043;53.224;6.580;2023-07-20T08:35:54;18.20;98.30
52030;DHT22;38043;53.224;6.580;2023-07-20T08:38:21;18.40;97.20
52030;DHT22;38043;53.224;6.580;2023-07-20T08:40:47;18.60;97.50
52030;DHT22;38043;53.224;6.580;2023-07-20T08:43:14;18.80;97.70
52030;DHT22;38043;53.224;6.580;2023-07-20T08:45:42;19.00;97.70
52030;DHT22;38043;53.224;6.580;2023-07-20T08:48:10;19.00;97.70
52030;DHT22;38043;53.224;6.580;2023-07-20T08:50:37;18.90;97.10
52030;DHT22;38043;53.224;6.580;2023-07-20T08:53:03;18.80;96.30
52030;DHT22;38043;53.224;6.580;2023-07-20T08:55:29;18.70;96.90
52030;DHT22;38043;53.224;6.580;2023-07-20T08:57:56;18.80;96.70
52030;DHT22;38043;53.224;6.580;2023-07-20T09:00:24;18.90;96.90
52030;DHT22;38043;53.224;6.580;2023-07-20T09:02:54;19.10;96.50
52030;DHT22;38043;53.224;6.580;2023-07-20T09:05:21;19.10;96.90
52030;DHT22;38043;53.224;6.580;2023-07-20T09:07:48;19.20;96.50
52030;DHT22;38043;53.224;6.580;2023-07-20T09:10:14;19.40;96.80
52030;DHT22;38043;53.224;6.580;2023-07-20T09:12:41;19.60;95.10
52030;DHT22;38043;53.224;6.580;2023-07-20T09:15:09;19.80;95.50
52030;DHT22;38043;53.224;6.580;2023-07-20T09:17:35;19.80;95.20
52030;DHT22;38043;53.224;6.580;2023-07-20T09:20:05;19.80;95.50
52030;DHT22;38043;53.224;6.580;2023-07-20T09:22:33;20.00;94.70
52030;DHT22;38043;53.224;6.580;2023-07-20T09:24:59;20.10;94.30
52030;DHT22;38043;53.224;6.580;2023-07-20T09:28:02;20.20;94.20
52030;DHT22;38043;53.224;6.580;2023-07-20T09:30:27;20.40;95.50
52030;DHT22;38043;53.224;6.580;2023-07-20T09:32:53;20.50;94.50
52030;DHT22;38043;53.224;6.580;2023-07-20T09:35:21;20.40;94.10
52030;DHT22;38043;53.224;6.580;2023-07-20T09:40:18;19.80;94.00
52030;DHT22;38043;53.224;6.580;2023-07-20T09:42:44;19.60;94.30
52030;DHT22;38043;53.224;6.580;2023-07-20T09:45:10;19.70;94.60
52030;DHT22;38043;53.224;6.580;2023-07-20T09:47:42;19.90;93.90
52030;DHT22;38043;53.224;6.580;2023-07-20T09:50:08;20.10;94.30
52030;DHT22;38043;53.224;6.580;2023-07-20T09:52:45;20.40;94.30
52030;DHT22;38043;53.224;6.580;2023-07-20T09:55:13;20.90;93.90
52030;DHT22;38043;53.224;6.580;2023-07-20T09:57:38;20.30;92.60
52030;DHT22;38043;53.224;6.580;2023-07-20T10:00:06;20.10;92.90
52030;DHT22;38043;53.224;6.580;2023-07-20T10:02:43;19.90;93.40
52030;DHT22;38043;53.224;6.580;2023-07-20T10:05:12;19.50;93.90
52030;DHT22;38043;53.224;6.580;2023-07-20T10:07:44;19.40;94.10
52030;DHT22;38043;53.224;6.580;2023-07-20T10:10:11;19.50;93.90
52030;DHT22;38043;53.224;6.580;2023-07-20T10:12:39;19.80;94.40
52030;DHT22;38043;53.224;6.580;2023-07-20T10:15:11;20.20;94.70
52030;DHT22;38043;53.224;6.580;2023-07-20T10:17:43;20.50;93.90
52030;DHT22;38043;53.224;6.580;2023-07-20T10:20:16;20.80;93.10
52030;DHT22;38043;53.224;6.580;2023-07-20T10:22:46;20.80;92.50
52030;DHT22;38043;53.224;6.580;2023-07-20T10:25:13;20.50;92.10
52030;DHT22;38043;53.224;6.580;2023-07-20T10:27:40;20.20;92.60
52030;DHT22;38043;53.224;6.580;2023-07-20T10:30:06;20.10;93.00
52030;DHT22;38043;53.224;6.580;2023-07-20T10:32:33;20.30;92.80
52030;DHT22;38043;53.224;6.580;2023-07-20T10:34:59;20.40;92.80
52030;DHT22;38043;53.224;6.580;2023-07-20T10:40:38;20.10;92.50
52030;DHT22;38043;53.224;6.580;2023-07-20T10:43:07;20.10;92.50
52030;DHT22;38043;53.224;6.580;2023-07-20T10:48:13;20.50;91.40
52030;DHT22;38043;53.224;6.580;2023-07-20T10:50:40;20.70;91.50
52030;DHT22;38043;53.224;6.580;2023-07-20T10:53:17;21.00;91.80
52030;DHT22;38043;53.224;6.580;2023-07-20T10:55:43;21.00;91.10
52030;DHT22;38043;53.224;6.580;2023-07-20T10:58:13;20.70;91.20
52030;DHT22;38043;53.224;6.580;2023-07-20T11:01:02;20.40;91.80
52030;DHT22;38043;53.224;6.580;2023-07-20T11:03:33;20.10;92.00
52030;DHT22;38043;53.224;6.580;2023-07-20T11:05:59;20.30;92.50
52030;DHT22;38043;53.224;6.580;2023-07-20T11:08:45;20.50;91.20
52030;DHT22;38043;53.224;6.580;2023-07-20T11:11:23;20.80;90.80
52030;DHT22;38043;53.224;6.580;2023-07-20T11:13:56;21.00;91.30
52030;DHT22;38043;53.224;6.580;2023-07-20T11:16:43;21.30;90.60
52030;DHT22;38043;53.224;6.580;2023-07-20T11:19:20;21.60;91.10
52030;DHT22;38043;53.224;6.580;2023-07-20T11:21:53;22.00;90.80
52030;DHT22;38043;53.224;6.580;2023-07-20T11:24:19;22.00;87.90
52030;DHT22;38043;53.224;6.580;2023-07-20T11:26:45;22.00;88.00
52030;DHT22;38043;53.224;6.580;2023-07-20T11:29:13;22.00;89.80
52030;DHT22;38043;53.224;6.580;2023-07-20T11:31:40;22.00;88.90
52030;DHT22;38043;53.224;6.580;2023-07-20T11:34:06;22.10;89.20
52030;DHT22;38043;53.224;6.580;2023-07-20T11:36:33;22.40;89.90
52030;DHT22;38043;53.224;6.580;2023-07-20T11:38:59;22.60;89.30
52030;DHT22;38043;53.224;6.580;2023-07-20T11:41:25;22.60;86.80
52030;DHT22;38043;53.224;6.580;2023-07-20T11:43:53;22.20;87.30
52030;DHT22;38043;53.224;6.580;2023-07-20T11:46:22;21.90;86.80
52030;DHT22;38043;53.224;6.580;2023-07-20T11:48:48;21.80;88.40
52030;DHT22;38043;53.224;6.580;2023-07-20T11:51:17;21.90;88.80
52030;DHT22;38043;53.224;6.580;2023-07-20T11:53:44;21.80;88.30
52030;DHT22;38043;53.224;6.580;2023-07-20T11:56:11;21.50;88.30
52030;DHT22;38043;53.224;6.580;2023-07-20T11:58:44;21.40;88.40
52030;DHT22;38043;53.224;6.580;2023-07-20T12:01:12;21.40;89.40
52030;DHT22;38043;53.224;6.580;2023-07-20T12:03:38;21.30;89.40
52030;DHT22;38043;53.224;6.580;2023-07-20T12:06:10;21.30;88.40
52030;DHT22;38043;53.224;6.580;2023-07-20T12:08:39;21.40;89.10
52030;DHT22;38043;53.224;6.580;2023-07-20T12:11:07;21.60;89.50
52030;DHT22;38043;53.224;6.580;2023-07-20T12:13:42;21.90;88.30
52030;DHT22;38043;53.224;6.580;2023-07-20T12:16:15;21.70;89.10
52030;DHT22;38043;53.224;6.580;2023-07-20T12:18:44;21.50;89.60
52030;DHT22;38043;53.224;6.580;2023-07-20T12:21:10;21.30;90.00
52030;DHT22;38043;53.224;6.580;2023-07-20T12:23:40;21.20;89.20
52030;DHT22;38043;53.224;6.580;2023-07-20T12:26:07;21.00;89.50
52030;DHT22;38043;53.224;6.580;2023-07-20T12:28:39;20.80;90.00
52030;DHT22;38043;53.224;6.580;2023-07-20T12:31:07;20.70;89.70
52030;DHT22;38043;53.224;6.580;2023-07-20T12:33:32;20.60;90.70
52030;DHT22;38043;53.224;6.580;2023-07-20T12:36:00;20.60;90.30
52030;DHT22;38043;53.224;6.580;2023-07-20T12:38:30;20.70;89.50
52030;DHT22;38043;53.224;6.580;2023-07-20T12:40:57;20.60;89.90
52030;DHT22;38043;53.224;6.580;2023-07-20T12:43:24;20.50;90.40
52030;DHT22;38043;53.224;6.580;2023-07-20T12:45:49;20.40;90.60
52030;DHT22;38043;53.224;6.580;2023-07-20T12:48:18;20.30;90.70
52030;DHT22;38043;53.224;6.580;2023-07-20T12:50:43;20.20;91.00
52030;DHT22;38043;53.224;6.580;2023-07-20T12:53:09;20.10;92.60
52030;DHT22;38043;53.224;6.580;2023-07-20T12:55:35;20.00;93.80
52030;DHT22;38043;53.224;6.580;2023-07-20T12:58:00;19.90;94.00
52030;DHT22;38043;53.224;6.580;2023-07-20T13:00:26;19.90;94.90
52030;DHT22;38043;53.224;6.580;2023-07-20T13:02:52;19.90;95.40
52030;DHT22;38043;53.224;6.580;2023-07-20T13:05:17;20.00;95.90
52030;DHT22;38043;53.224;6.580;2023-07-20T13:07:43;20.00;95.70
52030;DHT22;38043;53.224;6.580;2023-07-20T13:10:10;20.10;96.00
52030;DHT22;38043;53.224;6.580;2023-07-20T13:12:37;20.20;95.80
52030;DHT22;38043;53.224;6.580;2023-07-20T13:15:04;20.30;95.70
52030;DHT22;38043;53.224;6.580;2023-07-20T13:17:37;20.40;94.70
52030;DHT22;38043;53.224;6.580;2023-07-20T13:20:08;20.30;94.70
52030;DHT22;38043;53.224;6.580;2023-07-20T13:22:35;20.30;94.60
52030;DHT22;38043;53.224;6.580;2023-07-20T13:25:04;20.30;93.50
52030;DHT22;38043;53.224;6.580;2023-07-20T13:27:30;20.10;96.30
52030;DHT22;38043;53.224;6.580;2023-07-20T13:29:58;19.50;97.50
52030;DHT22;38043;53.224;6.580;2023-07-20T13:32:24;19.20;99.90
52030;DHT22;38043;53.224;6.580;2023-07-20T13:34:52;19.00;99.90
52030;DHT22;38043;53.224;6.580;2023-07-20T13:37:18;18.90;99.90
52030;DHT22;38043;53.224;6.580;2023-07-20T13:39:43;18.70;99.90
52030;DHT22;38043;53.224;6.580;2023-07-20T13:42:10;18.70;99.90
52030;DHT22;38043;53.224;6.580;2023-07-20T13:44:40;18.70;99.90
52030;DHT22;38043;53.224;6.580;2023-07-20T13:47:06;18.80;99.90
52030;DHT22;38043;53.224;6.580;2023-07-20T13:49:32;19.00;99.90
52030;DHT22;38043;53.224;6.580;2023-07-20T13:51:58;19.30;99.90
52030;DHT22;38043;53.224;6.580;2023-07-20T13:54:24;19.60;99.90
52030;DHT22;38043;53.224;6.580;2023-07-20T13:56:50;19.70;99.90
52030;DHT22;38043;53.224;6.580;2023-07-20T13:59:16;19.80;99.90
52030;DHT22;38043;53.224;6.580;2023-07-20T14:01:41;19.80;99.90
52030;DHT22;38043;53.224;6.580;2023-07-20T14:04:08;20.00;99.90
52030;DHT22;38043;53.224;6.580;2023-07-20T14:06:34;20.20;99.90
52030;DHT22;38043;53.224;6.580;2023-07-20T14:09:00;20.40;99.90
52030;DHT22;38043;53.224;6.580;2023-07-20T14:11:27;20.60;99.90
52030;DHT22;38043;53.224;6.580;2023-07-20T14:13:53;21.00;99.90
52030;DHT22;38043;53.224;6.580;2023-07-20T14:16:23;21.00;99.90
52030;DHT22;38043;53.224;6.580;2023-07-20T14:18:49;20.80;99.90
52030;DHT22;38043;53.224;6.580;2023-07-20T14:21:18;20.60;99.90
52030;DHT22;38043;53.224;6.580;2023-07-20T14:23:49;20.60;99.90
52030;DHT22;38043;53.224;6.580;2023-07-20T14:26:18;20.70;99.90
52030;DHT22;38043;53.224;6.580;2023-07-20T14:28:44;20.80;99.90
52030;DHT22;38043;53.224;6.580;2023-07-20T14:31:10;21.10;99.90
52030;DHT22;38043;53.224;6.580;2023-07-20T14:33:36;21.40;99.90
52030;DHT22;38043;53.224;6.580;2023-07-20T14:36:03;21.70;99.90
52030;DHT22;38043;53.224;6.580;2023-07-20T14:38:31;22.00;99.90
52030;DHT22;38043;53.224;6.580;2023-07-20T14:40:56;22.20;99.90
52030;DHT22;38043;53.224;6.580;2023-07-20T14:43:22;22.30;99.90
52030;DHT22;38043;53.224;6.580;2023-07-20T14:45:50;22.60;99.90
52030;DHT22;38043;53.224;6.580;2023-07-20T14:48:16;23.10;97.50
52030;DHT22;38043;53.224;6.580;2023-07-20T14:50:42;23.70;96.40
52030;DHT22;38043;53.224;6.580;2023-07-20T14:53:13;23.80;95.20
52030;DHT22;38043;53.224;6.580;2023-07-20T14:55:38;23.30;93.00
52030;DHT22;38043;53.224;6.580;2023-07-20T14:58:04;22.70;94.80
52030;DHT22;38043;53.224;6.580;2023-07-20T15:00:30;22.10;95.90
52030;DHT22;38043;53.224;6.580;2023-07-20T15:02:56;21.80;98.20
52030;DHT22;38043;53.224;6.580;2023-07-20T15:05:23;22.40;96.50
52030;DHT22;38043;53.224;6.580;2023-07-20T15:07:49;22.90;94.70
52030;DHT22;38043;53.224;6.580;2023-07-20T15:10:15;23.10;93.10
52030;DHT22;38043;53.224;6.580;2023-07-20T15:12:41;23.20;94.50
52030;DHT22;38043;53.224;6.580;2023-07-20T15:15:12;23.00;93.20
52030;DHT22;38043;53.224;6.580;2023-07-20T15:17:39;22.60;92.50
52030;DHT22;38043;53.224;6.580;2023-07-20T15:20:07;22.60;93.10
52030;DHT22;38043;53.224;6.580;2023-07-20T15:22:33;22.40;93.10
52030;DHT22;38043;53.224;6.580;2023-07-20T15:24:59;21.90;93.00
52030;DHT22;38043;53.224;6.580;2023-07-20T15:27:29;21.50;94.20
52030;DHT22;38043;53.224;6.580;2023-07-20T15:29:54;21.10;94.10
52030;DHT22;38043;53.224;6.580;2023-07-20T15:32:20;20.90;94.10
52030;DHT22;38043;53.224;6.580;2023-07-20T15:34:46;20.50;95.00
52030;DHT22;38043;53.224;6.580;2023-07-20T15:37:13;20.20;95.30
52030;DHT22;38043;53.224;6.580;2023-07-20T15:39:39;20.10;95.40
52030;DHT22;38043;53.224;6.580;2023-07-20T15:42:05;19.90;95.90
52030;DHT22;38043;53.224;6.580;2023-07-20T15:44:31;19.70;96.90
52030;DHT22;38043;53.224;6.580;2023-07-20T15:46:57;19.60;97.70